Time;durP1;ratioP1;P1;durP2;ratioP2;P2;SDS_P1;SDS_P2;PMS_P1;PMS_P2;Temp;Humidity;BMP_temperature;BMP_pressure;BME280_temperature;BME280_humidity;BME280_pressure;Samples;Min_cycle;Max_cycle;Signal;HPM_P1;HPM_P2
2023/05/08 00:00:09;;;;;;;;;;;;;;;18.84;64.33;101746.63;1246992;23;666;-66
2023/05/08 00:01:00;;;;;;;;;;;;;;;18.85;64.28;101748.34;1251366;23;669;-66
2023/05/08 00:01:50;;;;;;;;;;;;;;;18.84;64.60;101751.16;1251233;23;657;-66
2023/05/08 00:02:41;;;;;;;;;;;;;;;18.83;64.53;101753.00;1250880;23;649;-66
2023/05/08 00:03:31;;;;;;;;;;;;;;;18.84;63.65;101757.44;1251184;23;621;-66
2023/05/08 00:04:22;;;;;;;;;;;;;;;18.83;64.24;101749.47;1250854;23;665;-66
2023/05/08 00:05:12;;;;;;;;;;;;;;;18.82;64.51;101754.00;1246765;23;712;-66
2023/05/08 00:06:03;;;;;;;;;;;;;;;18.80;64.09;101753.31;1246915;23;619;-66
2023/05/08 00:06:53;;;;;;;;;;;;;;;18.80;64.08;101756.00;1247573;23;634;-66
2023/05/08 00:07:44;;;;;;;;;;;;;;;18.78;64.88;101749.88;1249837;23;630;-66
2023/05/08 00:08:34;;;;;;;;;;;;;;;18.81;64.70;101751.47;1247893;23;674;-66
2023/05/08 00:09:25;;;;;;;;;;;;;;;18.80;64.77;101753.31;1247047;23;631;-66
2023/05/08 00:10:15;;;;;;;;;;;;;;;18.76;63.86;101746.44;1246650;23;689;-66
2023/05/08 00:11:06;;;;;;;;;;;;;;;18.74;64.47;101748.41;1250843;23;831;-66
2023/05/08 00:11:56;;;;;;;;;;;;;;;18.74;65.05;101748.41;1251163;23;735;-66
2023/05/08 00:12:46;;;;;;;;;;;;;;;18.76;65.15;101749.13;1251051;23;657;-66
2023/05/08 00:13:37;;;;;;;;;;;;;;;18.75;64.70;101738.47;1250120;23;1910;-66
2023/05/08 00:14:27;;;;;;;;;;;;;;;18.76;64.51;101741.03;1250955;23;814;-66
2023/05/08 00:15:18;;;;;;;;;;;;;;;18.76;64.71;101735.63;1250626;23;646;-66
2023/05/08 00:16:10;;;;;;;;;;;;;;;18.75;64.68;101742.03;1251180;23;735;-67
2023/05/08 00:17:01;;;;;;;;;;;;;;;18.78;64.67;101740.91;1246819;23;611;-66
2023/05/08 00:17:51;;;;;;;;;;;;;;;18.76;64.64;101738.34;1251125;23;654;-66
2023/05/08 00:18:41;;;;;;;;;;;;;;;18.75;64.06;101739.31;1251275;23;614;-66
2023/05/08 00:19:32;;;;;;;;;;;;;;;18.76;64.53;101735.63;1250848;23;617;-66
2023/05/08 00:20:22;;;;;;;;;;;;;;;18.74;64.55;101740.31;1246952;23;624;-66
2023/05/08 00:21:13;;;;;;;;;;;;;;;18.75;64.47;101736.63;1250809;23;764;-66
2023/05/08 00:22:03;;;;;;;;;;;;;;;18.76;64.26;101732.94;1247227;23;682;-66
2023/05/08 00:22:54;;;;;;;;;;;;;;;18.76;64.90;101735.63;1247625;23;630;-66
2023/05/08 00:23:45;;;;;;;;;;;;;;;18.74;64.38;101734.91;1247951;23;665;-66
2023/05/08 00:24:35;;;;;;;;;;;;;;;18.72;64.14;101729.63;1251178;23;646;-67
2023/05/08 00:25:26;;;;;;;;;;;;;;;18.72;63.71;101731.47;1250791;23;637;-66
2023/05/08 00:26:16;;;;;;;;;;;;;;;18.75;64.68;101728.53;1248398;23;689;-66
2023/05/08 00:27:07;;;;;;;;;;;;;;;18.75;64.51;101736.63;1250822;23;634;-66
2023/05/08 00:27:57;;;;;;;;;;;;;;;18.75;64.56;101733.94;1250558;23;637;-66
2023/05/08 00:28:48;;;;;;;;;;;;;;;18.76;64.30;101738.34;1251263;23;630;-66
2023/05/08 00:29:41;;;;;;;;;;;;;;;18.76;63.90;101735.63;1251083;23;610;-66
2023/05/08 00:30:32;;;;;;;;;;;;;;;18.77;64.07;101737.34;1250871;23;653;-66
2023/05/08 00:31:23;;;;;;;;;;;;;;;18.74;64.20;101737.59;1250572;23;605;-66
2023/05/08 00:32:13;;;;;;;;;;;;;;;18.74;64.40;101734.91;1251210;23;630;-66
2023/05/08 00:33:04;;;;;;;;;;;;;;;18.73;64.15;101736.75;1246845;23;627;-66
2023/05/08 00:33:54;;;;;;;;;;;;;;;18.72;64.22;101734.19;1247420;23;1889;-66
2023/05/08 00:34:45;;;;;;;;;;;;;;;18.72;64.60;101740.44;1249871;23;622;-67
2023/05/08 00:35:35;;;;;;;;;;;;;;;18.72;63.91;101735.03;1247880;23;614;-66
2023/05/08 00:36:26;;;;;;;;;;;;;;;18.73;63.59;101733.19;1250932;23;745;-67
2023/05/08 00:37:16;;;;;;;;;;;;;;;18.71;64.54;101736.03;1246694;23;650;-66
2023/05/08 00:38:07;;;;;;;;;;;;;;;18.74;64.51;101740.31;1247122;23;661;-66
2023/05/08 00:38:57;;;;;;;;;;;;;;;18.72;64.10;101732.34;1251276;23;493;-66
2023/05/08 00:39:48;;;;;;;;;;;;;;;18.71;64.02;101730.63;1251040;23;609;-66
2023/05/08 00:40:38;;;;;;;;;;;;;;;18.73;64.02;101738.59;1250734;23;809;-66
2023/05/08 00:41:29;;;;;;;;;;;;;;;18.74;63.82;101734.91;1251080;23;684;-66
2023/05/08 00:42:19;;;;;;;;;;;;;;;18.71;64.05;101744.13;1247336;23;694;-66
2023/05/08 00:43:10;;;;;;;;;;;;;;;18.71;64.13;101729.75;1247627;23;619;-67
2023/05/08 00:44:00;;;;;;;;;;;;;;;18.70;64.32;101728.06;1247798;23;976;-66
2023/05/08 00:44:51;;;;;;;;;;;;;;;18.66;64.15;101732.84;1246897;23;586;-66
2023/05/08 00:45:41;;;;;;;;;;;;;;;18.64;63.69;101737.53;1246844;23;661;-66
2023/05/08 00:46:32;;;;;;;;;;;;;;;18.68;64.02;101730.03;1251297;23;1105;-66
2023/05/08 00:47:22;;;;;;;;;;;;;;;18.68;64.58;101727.31;1250630;23;1200;-66
2023/05/08 00:48:12;;;;;;;;;;;;;;;18.67;64.06;101733.69;1251269;23;625;-66
2023/05/08 00:49:03;;;;;;;;;;;;;;;18.66;64.51;101737.38;1250879;23;625;-67
2023/05/08 00:49:53;;;;;;;;;;;;;;;18.65;64.44;101730.28;1251267;23;633;-66
2023/05/08 00:50:44;;;;;;;;;;;;;;;18.66;64.36;101726.59;1251005;23;589;-66
2023/05/08 00:51:34;;;;;;;;;;;;;;;18.65;63.63;101741.06;1251371;23;622;-66
2023/05/08 00:52:25;;;;;;;;;;;;;;;18.65;64.02;101730.28;1250865;23;638;-66
2023/05/08 00:53:15;;;;;;;;;;;;;;;18.64;64.36;101728.56;1247139;23;623;-66
2023/05/08 00:54:06;;;;;;;;;;;;;;;18.63;64.39;101733.09;1250918;23;1946;-66
2023/05/08 00:54:56;;;;;;;;;;;;;;;18.64;64.24;101729.41;1246765;23;603;-66
2023/05/08 00:55:47;;;;;;;;;;;;;;;18.66;63.80;101732.00;1251199;23;629;-67
2023/05/08 00:56:37;;;;;;;;;;;;;;;18.65;64.00;101732.97;1251033;23;653;-66
2023/05/08 00:57:28;;;;;;;;;;;;;;;18.63;63.94;101725.00;1251079;23;646;-66
2023/05/08 00:58:18;;;;;;;;;;;;;;;18.62;63.85;101726.03;1251016;23;610;-66
2023/05/08 00:59:09;;;;;;;;;;;;;;;18.61;64.39;101735.09;1251356;23;618;-66
2023/05/08 00:59:59;;;;;;;;;;;;;;;18.62;64.50;101735.97;1246632;23;651;-66
2023/05/08 01:00:50;;;;;;;;;;;;;;;18.63;63.98;101737.69;1250634;23;626;-66
2023/05/08 01:01:41;;;;;;;;;;;;;;;18.62;64.37;101730.56;1246788;23;650;-67
2023/05/08 01:02:31;;;;;;;;;;;;;;;18.62;63.82;101730.56;1247234;23;607;-67
2023/05/08 01:03:21;;;;;;;;;;;;;;;18.62;63.69;101730.56;1249774;23;602;-67
2023/05/08 01:04:12;;;;;;;;;;;;;;;18.60;63.42;101730.69;1248933;23;642;-67
2023/05/08 01:05:02;;;;;;;;;;;;;;;18.61;64.25;101734.25;1249341;23;666;-67
2023/05/08 01:05:53;;;;;;;;;;;;;;;18.59;64.23;101741.63;1250951;23;656;-67
2023/05/08 01:06:43;;;;;;;;;;;;;;;18.60;64.50;101751.44;1248390;23;629;-67
2023/05/08 01:07:34;;;;;;;;;;;;;;;18.55;63.97;101740.13;1250822;23;598;-67
2023/05/08 01:08:24;;;;;;;;;;;;;;;18.52;64.77;101740.38;1250978;23;794;-67
2023/05/08 01:09:15;;;;;;;;;;;;;;;18.56;64.35;101741.84;1250844;23;614;-66
2023/05/08 01:10:05;;;;;;;;;;;;;;;18.58;63.73;101742.56;1250822;23;599;-67
2023/05/08 01:10:55;;;;;;;;;;;;;;;18.57;64.29;101755.22;1251063;23;690;-67
2023/05/08 01:11:46;;;;;;;;;;;;;;;18.55;64.00;101742.81;1250157;23;602;-67
2023/05/08 01:12:36;;;;;;;;;;;;;;;18.52;64.02;101737.66;1251264;23;653;-67
2023/05/08 01:13:27;;;;;;;;;;;;;;;18.53;64.53;101747.50;1250843;23;689;-67
2023/05/08 01:14:17;;;;;;;;;;;;;;;18.51;64.04;101742.22;1250851;23;661;-66
2023/05/08 01:15:08;;;;;;;;;;;;;;;18.51;64.23;101746.75;1251143;23;645;-67
2023/05/08 01:15:58;;;;;;;;;;;;;;;18.51;64.63;101744.91;1250696;23;650;-67
2023/05/08 01:16:49;;;;;;;;;;;;;;;18.53;64.66;101742.94;1250974;23;595;-67
2023/05/08 01:17:39;;;;;;;;;;;;;;;18.57;64.60;101751.66;1250640;23;618;-67
2023/05/08 01:18:30;;;;;;;;;;;;;;;18.58;63.92;101747.97;1246991;23;658;-67
2023/05/08 01:19:20;;;;;;;;;;;;;;;18.56;63.76;101747.22;1251297;23;669;-67
2023/05/08 01:20:11;;;;;;;;;;;;;;;18.58;63.62;101747.97;1251278;23;606;-67
2023/05/08 01:21:01;;;;;;;;;;;;;;;18.57;64.24;101754.34;1250527;23;653;-67
2023/05/08 01:21:52;;;;;;;;;;;;;;;18.57;63.88;101743.56;1246893;23;666;-67
2023/05/08 01:22:42;;;;;;;;;;;;;;;18.57;64.32;101739.00;1251007;23;619;-67
2023/05/08 01:23:33;;;;;;;;;;;;;;;18.60;64.16;101748.72;1251078;23;645;-67
2023/05/08 01:24:23;;;;;;;;;;;;;;;18.60;63.78;101748.72;1247190;23;634;-67
2023/05/08 01:25:14;;;;;;;;;;;;;;;18.59;64.08;101749.72;1250800;23;665;-66
2023/05/08 01:26:04;;;;;;;;;;;;;;;18.54;64.18;101752.75;1250273;23;614;-67
2023/05/08 01:26:55;;;;;;;;;;;;;;;18.55;64.11;101756.31;1250963;23;625;-67
2023/05/08 01:27:45;;;;;;;;;;;;;;;18.54;63.67;101751.91;1250753;23;676;-67
2023/05/08 01:28:35;;;;;;;;;;;;;;;18.51;64.68;101760.25;1251003;23;653;-67
2023/05/08 01:29:26;;;;;;;;;;;;;;;18.49;64.55;101756.81;1250693;23;645;-67
2023/05/08 01:30:17;;;;;;;;;;;;;;;18.50;64.47;101754.00;1250685;23;625;-66
2023/05/08 01:31:07;;;;;;;;;;;;;;;18.52;63.80;101761.97;1251135;23;661;-66
2023/05/08 01:31:58;;;;;;;;;;;;;;;18.52;63.98;101759.28;1250918;23;625;-66
2023/05/08 01:32:48;;;;;;;;;;;;;;;18.53;64.48;101758.28;1246920;23;631;-66
2023/05/08 01:33:38;;;;;;;;;;;;;;;18.48;63.96;101753.25;1250922;23;606;-66
2023/05/08 01:34:29;;;;;;;;;;;;;;;18.48;63.69;101753.25;1250797;23;633;-66
2023/05/08 01:35:19;;;;;;;;;;;;;;;18.49;64.32;101754.97;1250969;23;779;-67
2023/05/08 01:36:10;;;;;;;;;;;;;;;18.48;64.36;101750.56;1250779;23;629;-66
2023/05/08 01:37:00;;;;;;;;;;;;;;;18.48;64.36;101755.09;1250802;23;619;-67
2023/05/08 01:37:51;;;;;;;;;;;;;;;18.45;64.45;101747.28;1246700;23;623;-66
2023/05/08 01:38:41;;;;;;;;;;;;;;;18.44;63.62;101743.72;1246872;23;635;-66
2023/05/08 01:39:32;;;;;;;;;;;;;;;18.48;63.98;101750.56;1247049;23;619;-66
2023/05/08 01:40:22;;;;;;;;;;;;;;;18.49;63.79;101748.72;1249993;23;638;-67
2023/05/08 01:41:12;;;;;;;;;;;;;;;18.49;63.92;101746.88;1248406;23;721;-67
2023/05/08 01:42:03;;;;;;;;;;;;;;;18.48;64.53;101747.00;1246978;23;729;-66
2023/05/08 01:42:53;;;;;;;;;;;;;;;18.47;64.17;101751.53;1248263;23;674;-67
2023/05/08 01:43:44;;;;;;;;;;;;;;;18.48;64.39;101752.41;1246786;23;658;-66
2023/05/08 01:44:34;;;;;;;;;;;;;;;18.48;64.36;101750.56;1251295;23;629;-67
2023/05/08 01:45:25;;;;;;;;;;;;;;;18.50;64.34;101751.28;1251137;23;669;-67
2023/05/08 01:46:15;;;;;;;;;;;;;;;18.52;64.33;101751.16;1251146;23;731;-66
2023/05/08 01:47:06;;;;;;;;;;;;;;;18.51;64.31;101746.75;1251148;23;649;-66
2023/05/08 01:47:56;;;;;;;;;;;;;;;18.49;64.18;101744.19;1246687;23;643;-66
2023/05/08 01:48:47;;;;;;;;;;;;;;;18.48;64.35;101749.72;1246919;23;638;-66
2023/05/08 01:49:37;;;;;;;;;;;;;;;18.46;64.40;101740.88;1247365;23;658;-67
2023/05/08 01:50:28;;;;;;;;;;;;;;;18.46;64.26;101743.56;1247223;23;623;-66
2023/05/08 01:51:18;;;;;;;;;;;;;;;18.48;64.00;101744.31;1249551;23;630;-66
2023/05/08 01:52:09;;;;;;;;;;;;;;;18.49;64.24;101748.72;1246540;23;620;-66
2023/05/08 01:52:59;;;;;;;;;;;;;;;18.47;63.97;101748.84;1250921;23;625;-67
2023/05/08 01:53:49;;;;;;;;;;;;;;;18.47;63.84;101748.00;1246766;23;1893;-66
2023/05/08 01:54:40;;;;;;;;;;;;;;;18.48;64.20;101753.25;1250835;23;681;-66
2023/05/08 01:55:30;;;;;;;;;;;;;;;18.47;64.33;101748.00;1249135;23;712;-67
2023/05/08 01:56:21;;;;;;;;;;;;;;;18.49;64.45;101740.63;1250807;23;610;-66
2023/05/08 01:57:12;;;;;;;;;;;;;;;18.49;63.47;101746.88;1246960;23;607;-67
2023/05/08 01:58:02;;;;;;;;;;;;;;;18.48;63.80;101744.31;1247312;23;642;-67
2023/05/08 01:58:53;;;;;;;;;;;;;;;18.49;64.11;101748.72;1247804;23;658;-67
2023/05/08 01:59:43;;;;;;;;;;;;;;;18.49;63.79;101743.31;1250860;23;635;-67
2023/05/08 02:00:33;;;;;;;;;;;;;;;18.47;64.43;101751.53;1250828;23;645;-67
2023/05/08 02:01:24;;;;;;;;;;;;;;;18.45;63.91;101745.41;1250713;23;688;-67
2023/05/08 02:02:14;;;;;;;;;;;;;;;18.44;64.57;101749.13;1246479;23;610;-67
2023/05/08 02:03:05;;;;;;;;;;;;;;;18.43;64.06;101742.00;1250992;23;642;-67
2023/05/08 02:03:55;;;;;;;;;;;;;;;18.44;63.63;101751.84;1250994;23;751;-66
2023/05/08 02:04:46;;;;;;;;;;;;;;;18.43;64.14;101751.97;1250835;23;661;-67
2023/05/08 02:05:36;;;;;;;;;;;;;;;18.42;63.96;101744.84;1250564;23;669;-66
2023/05/08 02:06:27;;;;;;;;;;;;;;;18.44;64.26;101754.53;1250826;23;633;-66
2023/05/08 02:07:17;;;;;;;;;;;;;;;18.43;64.71;101750.13;1250654;23;634;-67
2023/05/08 02:08:07;;;;;;;;;;;;;;;18.45;63.91;101748.13;1246587;23;608;-66
2023/05/08 02:08:58;;;;;;;;;;;;;;;18.43;63.86;101757.34;1250806;23;666;-67
2023/05/08 02:09:48;;;;;;;;;;;;;;;18.41;63.94;101754.78;1248682;23;744;-67
2023/05/08 02:10:39;;;;;;;;;;;;;;;18.41;64.00;101752.09;1251020;23;660;-67
2023/05/08 02:11:30;;;;;;;;;;;;;;;18.39;63.75;101760.31;1250498;23;719;-67
2023/05/08 02:12:21;;;;;;;;;;;;;;;18.42;63.89;101755.63;1246705;23;631;-67
2023/05/08 02:13:11;;;;;;;;;;;;;;;18.46;64.00;101757.06;1247307;23;745;-66
2023/05/08 02:14:02;;;;;;;;;;;;;;;18.43;63.87;101750.13;1246509;23;1939;-67
2023/05/08 02:14:52;;;;;;;;;;;;;;;18.43;64.12;101758.22;1250676;23;606;-67
2023/05/08 02:15:42;;;;;;;;;;;;;;;18.44;63.75;101759.06;1246572;23;603;-66
2023/05/08 02:16:33;;;;;;;;;;;;;;;18.44;64.12;101750.97;1250894;23;639;-67
2023/05/08 02:17:24;;;;;;;;;;;;;;;18.41;64.54;101759.31;1246449;23;568;-66
2023/05/08 02:18:14;;;;;;;;;;;;;;;18.43;64.35;101760.06;1250608;23;657;-67
2023/05/08 02:19:04;;;;;;;;;;;;;;;18.42;63.61;101747.53;1250906;23;762;-67
2023/05/08 02:19:55;;;;;;;;;;;;;;;18.38;63.98;101755.88;1246645;23;646;-68
2023/05/08 02:20:45;;;;;;;;;;;;;;;18.37;64.26;101756.88;1251284;23;649;-68
2023/05/08 02:21:36;;;;;;;;;;;;;;;18.37;64.38;101759.56;1246595;23;617;-67
2023/05/08 02:22:26;;;;;;;;;;;;;;;18.36;63.90;101757.00;1250604;23;633;-67
2023/05/08 02:23:17;;;;;;;;;;;;;;;18.36;64.00;101768.66;1246436;23;748;-68
2023/05/08 02:24:07;;;;;;;;;;;;;;;18.36;63.71;101757.00;1246511;23;713;-68
2023/05/08 02:24:57;;;;;;;;;;;;;;;18.35;63.52;101757.97;1247396;23;611;-67
2023/05/08 02:25:48;;;;;;;;;;;;;;;18.39;63.87;101759.44;1247399;23;611;-67
2023/05/08 02:26:38;;;;;;;;;;;;;;;18.41;63.90;101760.19;1250481;23;653;-67
2023/05/08 02:27:29;;;;;;;;;;;;;;;18.38;63.91;101760.44;1250602;23;606;-67
2023/05/08 02:28:19;;;;;;;;;;;;;;;18.35;63.87;101756.13;1250704;23;642;-68
2023/05/08 02:29:10;;;;;;;;;;;;;;;18.35;63.45;101766.06;1246870;23;905;-67
2023/05/08 02:30:00;;;;;;;;;;;;;;;18.33;64.21;101752.72;1250831;23;669;-67
2023/05/08 02:30:50;;;;;;;;;;;;;;;18.32;63.88;101753.69;1251339;23;615;-67
2023/05/08 02:31:41;;;;;;;;;;;;;;;18.32;63.77;101755.53;1250813;23;641;-67
2023/05/08 02:32:31;;;;;;;;;;;;;;;18.31;64.03;101751.97;1250656;23;660;-67
2023/05/08 02:33:22;;;;;;;;;;;;;;;18.34;64.21;101757.13;1250842;23;795;-67
2023/05/08 02:34:12;;;;;;;;;;;;;;;18.39;63.53;101762.16;1250826;23;1914;-67
2023/05/08 02:35:03;;;;;;;;;;;;;;;18.38;63.89;101758.59;1246876;23;602;-67
2023/05/08 02:35:53;;;;;;;;;;;;;;;18.37;63.52;101754.16;1250991;23;652;-67
2023/05/08 02:36:44;;;;;;;;;;;;;;;18.41;63.36;101759.31;1246709;23;659;-67
2023/05/08 02:37:34;;;;;;;;;;;;;;;18.38;63.98;101760.44;1250919;23;657;-67
2023/05/08 02:38:25;;;;;;;;;;;;;;;18.37;63.84;101759.56;1250050;23;605;-67
2023/05/08 02:39:15;;;;;;;;;;;;;;;18.35;63.62;101756.13;1250699;23;696;-67
2023/05/08 02:40:06;;;;;;;;;;;;;;;18.35;63.35;101756.13;1250883;23;598;-67
2023/05/08 02:40:56;;;;;;;;;;;;;;;18.31;63.79;101760.06;1250712;23;622;-66
2023/05/08 02:41:46;;;;;;;;;;;;;;;18.32;64.11;101760.94;1247321;23;623;-67
2023/05/08 02:42:37;;;;;;;;;;;;;;;18.30;64.62;101754.78;1247446;23;651;-66
2023/05/08 02:43:27;;;;;;;;;;;;;;;18.30;64.39;101752.94;1247700;23;638;-66
2023/05/08 02:44:18;;;;;;;;;;;;;;;18.27;63.88;101763.19;1246629;23;670;-66
2023/05/08 02:45:08;;;;;;;;;;;;;;;18.27;63.65;101763.19;1250647;23;606;-66
2023/05/08 02:45:59;;;;;;;;;;;;;;;18.30;64.10;101763.75;1251153;23;641;-67
2023/05/08 02:46:49;;;;;;;;;;;;;;;18.31;63.67;101760.06;1251075;23;649;-66
2023/05/08 02:47:40;;;;;;;;;;;;;;;18.30;63.57;101758.34;1250834;23;1206;-67
2023/05/08 02:48:30;;;;;;;;;;;;;;;18.28;64.12;101760.31;1251044;23;641;-67
2023/05/08 02:49:20;;;;;;;;;;;;;;;18.26;63.86;101762.31;1247204;23;607;-67
2023/05/08 02:50:11;;;;;;;;;;;;;;;18.25;63.86;101760.59;1250880;23;653;-67
2023/05/08 02:51:01;;;;;;;;;;;;;;;18.27;63.73;101761.31;1250996;23;646;-67
2023/05/08 02:51:52;;;;;;;;;;;;;;;18.26;63.89;101750.66;1250891;23;594;-67
2023/05/08 02:52:42;;;;;;;;;;;;;;;18.23;63.78;101746.38;1250723;23;629;-67
2023/05/08 02:53:32;;;;;;;;;;;;;;;18.24;64.22;101753.50;1246966;23;615;-67
2023/05/08 02:54:23;;;;;;;;;;;;;;;18.25;64.46;101744.41;1247098;23;664;-67
2023/05/08 02:55:13;;;;;;;;;;;;;;;18.25;64.15;101747.09;1249286;23;658;-67
2023/05/08 02:56:04;;;;;;;;;;;;;;;18.26;63.41;101750.66;1250751;23;617;-66
2023/05/08 02:56:54;;;;;;;;;;;;;;;18.26;63.44;101740.72;1250926;23;767;-67
2023/05/08 02:57:45;;;;;;;;;;;;;;;18.28;63.51;101745.97;1246658;23;639;-67
2023/05/08 02:58:36;;;;;;;;;;;;;;;18.27;63.72;101747.81;1246854;23;579;-68
2023/05/08 02:59:26;;;;;;;;;;;;;;;18.26;63.91;101751.53;1250658;23;827;-67
2023/05/08 03:00:17;;;;;;;;;;;;;;;18.26;63.86;101748.81;1250847;23;684;-67
2023/05/08 03:01:07;;;;;;;;;;;;;;;18.27;64.28;101749.69;1251041;23;673;-66
2023/05/08 03:01:58;;;;;;;;;;;;;;;18.28;63.43;101751.38;1246698;23;678;-66
2023/05/08 03:02:48;;;;;;;;;;;;;;;18.28;63.77;101752.22;1246887;23;659;-66
2023/05/08 03:03:39;;;;;;;;;;;;;;;18.25;63.93;101747.09;1249090;23;603;-66
2023/05/08 03:04:29;;;;;;;;;;;;;;;18.24;64.09;101748.09;1250528;23;738;-66
2023/05/08 03:05:20;;;;;;;;;;;;;;;18.25;63.76;101747.09;1247175;23;639;-66
2023/05/08 03:06:10;;;;;;;;;;;;;;;18.26;64.24;101750.66;1247239;23;599;-66
2023/05/08 03:07:01;;;;;;;;;;;;;;;18.26;63.67;101746.13;1249181;23;688;-66
2023/05/08 03:07:51;;;;;;;;;;;;;;;18.27;64.15;101746.97;1250572;23;657;-66
2023/05/08 03:08:41;;;;;;;;;;;;;;;18.26;63.86;101747.97;1246429;23;651;-66
2023/05/08 03:09:32;;;;;;;;;;;;;;;18.24;63.73;101742.69;1250958;23;614;-66
2023/05/08 03:10:22;;;;;;;;;;;;;;;18.23;63.87;101740.97;1250739;23;701;-66
2023/05/08 03:11:13;;;;;;;;;;;;;;;18.19;64.69;101736.81;1246456;23;586;-66
2023/05/08 03:12:03;;;;;;;;;;;;;;;18.21;63.82;101748.34;1247024;23;650;-66
2023/05/08 03:12:54;;;;;;;;;;;;;;;18.18;64.08;101743.19;1250887;23;634;-66
2023/05/08 03:13:44;;;;;;;;;;;;;;;18.16;64.05;101747.84;1250633;23;680;-66
2023/05/08 03:14:35;;;;;;;;;;;;;;;18.18;64.54;101743.19;1246876;23;655;-66
2023/05/08 03:15:25;;;;;;;;;;;;;;;18.19;64.19;101736.81;1250473;23;629;-66
2023/05/08 03:16:16;;;;;;;;;;;;;;;18.19;64.17;101742.22;1250575;23;626;-66
2023/05/08 03:17:07;;;;;;;;;;;;;;;18.18;63.36;101740.50;1250664;23;614;-67
2023/05/08 03:17:57;;;;;;;;;;;;;;;18.17;63.33;101746.88;1250507;23;677;-66
2023/05/08 03:18:48;;;;;;;;;;;;;;;18.20;63.40;101741.22;1250869;23;638;-66
2023/05/08 03:19:38;;;;;;;;;;;;;;;18.20;63.36;101741.22;1246738;23;686;-66
2023/05/08 03:20:29;;;;;;;;;;;;;;;18.17;64.37;101741.47;1251172;23;602;-66
2023/05/08 03:21:20;;;;;;;;;;;;;;;18.18;64.15;101748.59;1246517;23;630;-66
2023/05/08 03:22:10;;;;;;;;;;;;;;;18.15;64.46;101739.88;1246764;23;638;-66
2023/05/08 03:23:01;;;;;;;;;;;;;;;18.15;63.66;101740.75;1249683;23;602;-66
2023/05/08 03:23:51;;;;;;;;;;;;;;;18.16;63.67;101745.16;1247798;23;631;-66
2023/05/08 03:24:42;;;;;;;;;;;;;;;18.16;63.55;101739.75;1250785;23;736;-66
2023/05/08 03:25:32;;;;;;;;;;;;;;;18.14;64.26;101736.31;1250654;23;614;-66
2023/05/08 03:26:23;;;;;;;;;;;;;;;18.12;64.13;101745.53;1246931;23;658;-66
2023/05/08 03:27:14;;;;;;;;;;;;;;;18.10;64.12;101734.84;1250672;23;554;-66
2023/05/08 03:28:04;;;;;;;;;;;;;;;18.10;64.65;101747.50;1250535;23;630;-66
2023/05/08 03:28:55;;;;;;;;;;;;;;;18.12;64.24;101743.69;1250818;23;657;-66
2023/05/08 03:29:45;;;;;;;;;;;;;;;18.13;64.45;101740.00;1246844;23;659;-66
2023/05/08 03:30:36;;;;;;;;;;;;;;;18.12;64.14;101741.00;1250822;23;622;-66
2023/05/08 03:31:26;;;;;;;;;;;;;;;18.12;64.41;101749.09;1250585;23;689;-66
2023/05/08 03:32:17;;;;;;;;;;;;;;;18.11;64.16;101741.97;1250812;23;672;-66
2023/05/08 03:33:07;;;;;;;;;;;;;;;18.12;63.71;101735.59;1247374;23;666;-66
2023/05/08 03:33:57;;;;;;;;;;;;;;;18.15;63.63;101740.75;1247936;23;1857;-66
2023/05/08 03:34:48;;;;;;;;;;;;;;;18.13;63.72;101741.84;1247553;23;591;-66
2023/05/08 03:35:38;;;;;;;;;;;;;;;18.11;64.30;101741.09;1246972;23;682;-67
2023/05/08 03:36:29;;;;;;;;;;;;;;;18.10;64.22;101742.94;1246132;23;643;-67
2023/05/08 03:37:19;;;;;;;;;;;;;;;18.09;64.32;101741.28;1249976;23;633;-67
2023/05/08 03:38:10;;;;;;;;;;;;;;;18.11;64.48;101736.56;1251020;23;634;-66
2023/05/08 03:39:00;;;;;;;;;;;;;;;18.12;63.69;101738.28;1251012;23;657;-67
2023/05/08 03:39:50;;;;;;;;;;;;;;;18.12;64.32;101732.03;1247526;23;643;-67
2023/05/08 03:40:44;;;;;;;;;;;;;;;18.13;63.73;101736.44;1251368;23;594;-67
2023/05/08 03:41:34;;;;;;;;;;;;;;;18.14;63.63;101732.78;1251175;23;617;-67
2023/05/08 03:42:25;;;;;;;;;;;;;;;18.11;63.57;101731.19;1251351;23;821;-67
2023/05/08 03:43:16;;;;;;;;;;;;;;;18.12;63.58;101732.91;1251236;23;636;-67
2023/05/08 03:44:06;;;;;;;;;;;;;;;18.12;63.44;101732.03;1247094;23;662;-67
2023/05/08 03:44:57;;;;;;;;;;;;;;;18.11;63.45;101739.28;1251191;23;626;-67
2023/05/08 03:45:47;;;;;;;;;;;;;;;18.13;63.44;101740.00;1251284;23;649;-67
2023/05/08 03:46:38;;;;;;;;;;;;;;;18.15;63.22;101737.19;1251165;23;668;-67
2023/05/08 03:47:28;;;;;;;;;;;;;;;18.15;63.43;101732.66;1250790;23;1199;-67
2023/05/08 03:48:19;;;;;;;;;;;;;;;18.13;63.80;101725.66;1250977;23;625;-67
2023/05/08 03:49:09;;;;;;;;;;;;;;;18.15;63.90;101727.25;1251079;23;852;-67
2023/05/08 03:49:59;;;;;;;;;;;;;;;18.14;63.33;101732.78;1251193;23;586;-67
2023/05/08 03:50:50;;;;;;;;;;;;;;;18.10;63.31;101737.56;1251178;23;1003;-67
2023/05/08 03:51:40;;;;;;;;;;;;;;;18.08;63.63;101728.75;1250762;23;606;-67
2023/05/08 03:52:31;;;;;;;;;;;;;;;18.08;63.61;101726.06;1246932;23;599;-67
2023/05/08 03:53:21;;;;;;;;;;;;;;;18.10;63.77;101726.75;1250753;23;693;-67
2023/05/08 03:54:12;;;;;;;;;;;;;;;18.13;63.85;101729.22;1246939;23;1897;-67
2023/05/08 03:55:02;;;;;;;;;;;;;;;18.13;63.40;101723.81;1251252;23;646;-66
2023/05/08 03:55:52;;;;;;;;;;;;;;;18.16;63.39;101734.38;1247262;23;662;-67
2023/05/08 03:56:44;;;;;;;;;;;;;;;18.09;63.81;101730.47;1247443;23;662;-67
2023/05/08 03:57:35;;;;;;;;;;;;;;;18.06;63.54;101730.72;1249732;23;618;-67
2023/05/08 03:58:25;;;;;;;;;;;;;;;18.08;64.38;101734.16;1250641;23;657;-67
2023/05/08 03:59:16;;;;;;;;;;;;;;;18.10;64.00;101731.31;1246625;23;768;-67
2023/05/08 04:00:08;;;;;;;;;;;;;;;18.07;63.55;101735.13;1250976;23;590;-66
2023/05/08 04:00:58;;;;;;;;;;;;;;;18.10;63.51;101742.09;1251121;23;630;-67
2023/05/08 04:01:49;;;;;;;;;;;;;;;18.10;63.93;101732.16;1246957;23;611;-67
2023/05/08 04:02:39;;;;;;;;;;;;;;;18.06;63.42;101733.41;1250672;23;662;-66
2023/05/08 04:03:30;;;;;;;;;;;;;;;18.06;64.44;101733.41;1250996;23;633;-66
2023/05/08 04:04:20;;;;;;;;;;;;;;;18.07;63.95;101732.44;1251154;23;662;-66
2023/05/08 04:05:11;;;;;;;;;;;;;;;18.10;64.14;101740.25;1251446;23;610;-67
2023/05/08 04:06:01;;;;;;;;;;;;;;;18.09;63.48;101743.09;1251105;23;621;-67
2023/05/08 04:06:52;;;;;;;;;;;;;;;18.04;63.56;101740.78;1251217;23;700;-67
2023/05/08 04:07:42;;;;;;;;;;;;;;;18.05;63.45;101737.09;1250889;23;688;-67
2023/05/08 04:08:32;;;;;;;;;;;;;;;18.07;63.76;101731.59;1251206;23;709;-67
2023/05/08 04:09:23;;;;;;;;;;;;;;;18.04;63.94;101730.84;1247179;23;678;-67
2023/05/08 04:10:14;;;;;;;;;;;;;;;18.04;64.03;101736.25;1251139;23;617;-67
2023/05/08 04:11:04;;;;;;;;;;;;;;;18.06;63.68;101738.81;1250978;23;669;-66
2023/05/08 04:11:55;;;;;;;;;;;;;;;18.06;64.12;101733.41;1249418;23;692;-66
2023/05/08 04:12:45;;;;;;;;;;;;;;;18.06;64.29;101741.50;1251045;23;673;-66
2023/05/08 04:13:35;;;;;;;;;;;;;;;18.08;64.03;101736.84;1250826;23;657;-66
2023/05/08 04:14:26;;;;;;;;;;;;;;;18.08;63.98;101742.25;1246831;23;738;-66
2023/05/08 04:15:16;;;;;;;;;;;;;;;18.08;63.18;101747.66;1250892;23;622;-66
2023/05/08 04:16:07;;;;;;;;;;;;;;;18.06;63.48;101746.06;1251024;23;885;-66
2023/05/08 04:16:57;;;;;;;;;;;;;;;18.01;63.86;101741.03;1251321;23;601;-66
2023/05/08 04:17:48;;;;;;;;;;;;;;;18.05;63.65;101742.50;1247019;23;662;-66
2023/05/08 04:18:38;;;;;;;;;;;;;;;18.04;64.28;101743.47;1251255;23;699;-66
2023/05/08 04:19:28;;;;;;;;;;;;;;;18.05;63.19;101745.19;1251112;23;645;-66
2023/05/08 04:20:19;;;;;;;;;;;;;;;18.04;64.05;101741.63;1246540;23;625;-66
2023/05/08 04:21:10;;;;;;;;;;;;;;;18.03;63.99;101733.66;1251491;23;627;-66
2023/05/08 04:22:00;;;;;;;;;;;;;;;18.02;63.23;101743.59;1247298;23;666;-66
2023/05/08 04:22:51;;;;;;;;;;;;;;;18.04;63.56;101741.63;1249559;23;693;-66
2023/05/08 04:23:41;;;;;;;;;;;;;;;18.02;64.14;101737.34;1247287;23;662;-66
2023/05/08 04:24:31;;;;;;;;;;;;;;;18.03;63.57;101744.47;1247312;23;611;-66
2023/05/08 04:25:22;;;;;;;;;;;;;;;18.04;63.97;101738.09;1246697;23;657;-66
2023/05/08 04:26:12;;;;;;;;;;;;;;;18.05;63.47;101747.88;1250870;23;653;-66